createdAt,value
2019-01-19T00:00:32.391Z,100423.16
2019-01-19T00:03:27.716Z,100426.11
2019-01-19T00:06:07.744Z,100421.27
2019-01-19T00:08:40.204Z,100419.39
2019-01-19T00:11:15.918Z,100422.02
2019-01-19T00:13:57.544Z,100417.74
2019-01-19T00:17:00.037Z,100416.09
2019-01-19T00:19:44.198Z,100418.42
2019-01-19T00:22:34.710Z,100414.28
2019-01-19T00:25:12.973Z,100417.14
2019-01-19T00:27:45.648Z,100420.30
2019-01-19T00:30:18.308Z,100418.52
2019-01-19T00:32:56.534Z,100427.55
2019-01-19T00:35:49.781Z,100425.12
2019-01-19T00:38:25.208Z,100424.13
2019-01-19T00:41:00.602Z,100430.23
2019-01-19T00:43:30.957Z,100439.00
2019-01-19T00:46:55.062Z,100431.44
2019-01-19T00:49:24.626Z,100431.85
2019-01-19T00:52:15.124Z,100432.36
2019-01-19T00:54:56.839Z,100429.73
2019-01-19T00:57:39.808Z,100429.87
2019-01-19T01:00:24.383Z,100424.77
2019-01-19T01:03:16.532Z,100426.27
2019-01-19T01:05:51.835Z,100429.84
2019-01-19T01:08:43.555Z,100427.25
2019-01-19T01:11:16.569Z,100425.30
2019-01-19T01:13:51.899Z,100430.41
2019-01-19T01:16:27.470Z,100426.00
2019-01-19T01:19:05.962Z,100427.78
2019-01-19T01:21:53.394Z,100428.06
2019-01-19T01:24:26.042Z,100431.78
2019-01-19T01:27:01.411Z,100431.78
2019-01-19T01:29:42.734Z,100427.75
2019-01-19T01:32:18.017Z,100432.80
2019-01-19T01:35:24.298Z,100430.30
2019-01-19T01:38:02.157Z,100427.95
2019-01-19T01:40:53.184Z,100428.95
2019-01-19T01:43:34.997Z,100432.89
2019-01-19T01:46:10.628Z,100430.81
2019-01-19T01:48:58.633Z,100427.86
2019-01-19T01:51:33.866Z,100431.92
2019-01-19T01:54:26.675Z,100426.81
2019-01-19T01:56:58.775Z,100423.72
2019-01-19T01:59:46.576Z,100428.36
2019-01-19T02:02:25.200Z,100431.41
2019-01-19T02:05:31.108Z,100428.99
2019-01-19T02:08:20.749Z,100422.48
2019-01-19T02:11:11.499Z,100420.53
2019-01-19T02:13:53.028Z,100423.11
2019-01-19T02:16:28.947Z,100427.81
2019-01-19T02:19:17.791Z,100423.37
2019-01-19T02:21:50.490Z,100423.34
2019-01-19T02:24:40.818Z,100421.23
2019-01-19T02:27:30.388Z,100421.36
2019-01-19T02:30:08.732Z,100413.36
2019-01-19T02:33:02.374Z,100416.80
2019-01-19T02:35:48.177Z,100418.06
2019-01-19T02:38:21.272Z,100419.72
2019-01-19T02:40:53.907Z,100413.36
2019-01-19T02:43:35.586Z,100417.47
2019-01-19T02:46:16.675Z,100416.66
2019-01-19T02:48:51.781Z,100419.45
2019-01-19T02:51:39.685Z,100421.00
2019-01-19T02:54:18.347Z,100418.31
2019-01-19T02:56:50.982Z,100417.23
2019-01-19T02:59:29.720Z,100410.05
2019-01-19T03:02:17.524Z,100407.42
2019-01-19T03:04:53.100Z,100405.72
2019-01-19T03:07:25.738Z,100410.22
2019-01-19T03:10:19.295Z,100407.44
2019-01-19T03:12:57.990Z,100409.72
2019-01-19T03:15:45.956Z,100405.98
2019-01-19T03:18:35.382Z,100408.41
2019-01-19T03:21:16.791Z,100403.73
2019-01-19T03:23:54.935Z,100403.44
2019-01-19T03:26:39.683Z,100404.11
2019-01-19T03:29:30.371Z,100407.59
2019-01-19T03:32:11.766Z,100403.20
2019-01-19T03:34:50.473Z,100402.25
2019-01-19T03:37:40.752Z,100399.84
2019-01-19T03:40:28.273Z,100401.95
2019-01-19T03:43:20.450Z,100399.67
2019-01-19T03:45:53.099Z,100397.05
2019-01-19T03:48:31.828Z,100396.91
2019-01-19T03:51:10.188Z,100401.04
2019-01-19T03:53:46.284Z,100398.95
2019-01-19T03:56:21.794Z,100393.88
2019-01-19T03:59:03.865Z,100396.47
2019-01-19T04:01:47.744Z,100391.59
2019-01-19T04:04:32.759Z,100395.36
2019-01-19T04:07:22.074Z,100392.91
2019-01-19T04:10:09.145Z,100394.83
2019-01-19T04:12:59.858Z,100396.44
2019-01-19T04:15:32.551Z,100394.43
2019-01-19T04:18:08.317Z,100396.05
2019-01-19T04:20:55.478Z,100397.02
2019-01-19T04:23:24.916Z,100392.15
2019-01-19T04:25:57.842Z,100396.52
2019-01-19T04:28:27.808Z,100393.06
2019-01-19T04:30:57.283Z,100389.70
2019-01-19T04:33:26.729Z,100390.47
2019-01-19T04:35:56.190Z,100388.26
2019-01-19T04:38:25.658Z,100381.95
2019-01-19T04:40:55.298Z,100382.11
2019-01-19T04:43:25.016Z,100384.59
2019-01-19T04:45:54.484Z,100383.95
2019-01-19T04:48:23.950Z,100379.12
2019-01-19T04:50:53.831Z,100387.17
2019-01-19T04:53:23.286Z,100386.70
2019-01-19T04:55:53.067Z,100392.30
2019-01-19T04:58:22.527Z,100387.73
2019-01-19T05:00:52.408Z,100381.44
2019-01-19T05:03:21.863Z,100387.51
2019-01-19T05:05:51.614Z,100392.75
2019-01-19T05:08:21.109Z,100388.09
2019-01-19T05:10:50.548Z,100384.30
2019-01-19T05:13:20.015Z,100387.28
2019-01-19T05:15:49.858Z,100383.72
2019-01-19T05:18:19.670Z,100389.81
2019-01-19T05:20:50.864Z,100391.12
2019-01-19T05:23:20.517Z,100388.22
2019-01-19T05:25:50.317Z,100391.64
2019-01-19T05:28:19.858Z,100387.09
2019-01-19T05:30:50.377Z,100393.35
2019-01-19T05:33:19.897Z,100384.03
2019-01-19T05:35:49.346Z,100388.48
2019-01-19T05:38:19.041Z,100388.36
2019-01-19T05:40:48.909Z,100379.14
2019-01-19T05:43:18.448Z,100379.14
2019-01-19T05:45:48.212Z,100386.48
2019-01-19T05:48:17.674Z,100387.15
2019-01-19T05:50:47.119Z,100388.81
2019-01-19T05:53:16.935Z,100390.62
2019-01-19T05:55:47.186Z,100390.98
2019-01-19T05:58:17.065Z,100395.70
2019-01-19T06:00:46.555Z,100392.30
2019-01-19T06:03:16.019Z,100390.98
2019-01-19T06:05:47.412Z,100390.84
2019-01-19T06:08:17.214Z,100392.67
2019-01-19T06:10:46.964Z,100389.86
2019-01-19T06:13:16.524Z,100385.77
2019-01-19T06:15:46.758Z,100372.34
2019-01-19T06:18:16.229Z,100386.59
2019-01-19T06:20:45.731Z,100386.59
2019-01-19T06:23:15.223Z,100385.49
2019-01-19T06:25:44.686Z,100387.31
2019-01-19T06:28:14.163Z,100384.06
2019-01-19T06:30:43.767Z,100389.77
2019-01-19T06:33:13.302Z,100390.28
2019-01-19T06:35:42.733Z,100386.36
2019-01-19T06:38:12.537Z,100386.20
2019-01-19T06:40:42.011Z,100383.25
2019-01-19T06:43:11.763Z,100387.18
2019-01-19T06:45:41.211Z,100385.41
2019-01-19T06:48:10.977Z,100389.17
2019-01-19T06:50:40.789Z,100388.84
2019-01-19T06:53:10.288Z,100388.84
2019-01-19T06:55:39.746Z,100388.34
2019-01-19T06:58:09.223Z,100395.38
2019-01-19T07:00:38.696Z,100390.48
2019-01-19T07:03:08.324Z,100391.59
2019-01-19T07:05:37.805Z,100392.41
2019-01-19T07:08:08.053Z,100396.02
2019-01-19T07:10:37.892Z,100392.90
2019-01-19T07:13:07.675Z,100396.02
2019-01-19T07:15:37.403Z,100398.91
2019-01-19T07:18:06.867Z,100399.52
2019-01-19T07:20:36.356Z,100403.20
2019-01-19T07:23:05.822Z,100403.20
2019-01-19T07:25:35.268Z,100404.26
2019-01-19T07:28:04.995Z,100405.84
2019-01-19T07:30:34.463Z,100407.98
2019-01-19T07:33:03.953Z,100409.31
2019-01-19T07:35:33.421Z,100407.23
2019-01-19T07:38:02.936Z,100406.45
2019-01-19T07:40:33.592Z,100413.51
2019-01-19T07:43:04.340Z,100409.95
2019-01-19T07:45:33.843Z,100412.59
2019-01-19T07:48:04.156Z,100413.98
2019-01-19T07:50:33.612Z,100419.16
2019-01-19T07:53:03.092Z,100426.48
2019-01-19T07:55:32.706Z,100423.84
2019-01-19T07:58:02.509Z,100425.70
2019-01-19T08:00:33.855Z,100431.29
2019-01-19T08:03:03.535Z,100431.94
2019-01-19T08:05:33.468Z,100433.85
2019-01-19T08:08:03.276Z,100436.30
2019-01-19T08:10:32.785Z,100434.91
2019-01-19T08:13:02.269Z,100431.11
2019-01-19T08:15:31.763Z,100431.12
2019-01-19T08:18:01.597Z,100431.76
2019-01-19T08:20:31.367Z,100430.84
2019-01-19T08:23:01.121Z,100427.25
2019-01-19T08:25:30.654Z,100426.70
2019-01-19T08:28:01.381Z,100427.06
2019-01-19T08:30:31.291Z,100422.39
2019-01-19T08:33:01.434Z,100431.73
2019-01-19T08:35:31.455Z,100435.23
2019-01-19T08:38:00.938Z,100426.73
2019-01-19T08:40:33.171Z,100426.29
2019-01-19T08:43:04.444Z,100427.24
2019-01-19T08:45:33.902Z,100422.25
2019-01-19T08:48:04.611Z,100421.42
2019-01-19T08:50:34.074Z,100424.84
2019-01-19T08:53:03.525Z,100424.03
2019-01-19T08:55:32.971Z,100427.20
2019-01-19T08:58:02.427Z,100421.86
2019-01-19T09:00:31.905Z,100417.84
2019-01-19T09:03:01.366Z,100420.00
2019-01-19T09:05:30.804Z,100429.20
2019-01-19T09:08:00.260Z,100419.59
2019-01-19T09:10:30.048Z,100416.00
2019-01-19T09:12:59.544Z,100424.52
2019-01-19T09:15:29.155Z,100421.67
2019-01-19T09:17:58.648Z,100429.01
2019-01-19T09:20:28.362Z,100422.55
2019-01-19T09:22:59.798Z,100420.23
2019-01-19T09:25:29.333Z,100422.98
2019-01-19T09:27:58.787Z,100421.53
2019-01-19T09:30:28.538Z,100427.08
2019-01-19T09:32:58.353Z,100421.99
2019-01-19T09:35:27.826Z,100413.02
2019-01-19T09:37:57.584Z,100421.80
2019-01-19T09:40:27.033Z,100422.20
2019-01-19T09:42:56.480Z,100425.48
2019-01-19T09:45:26.002Z,100415.22
2019-01-19T09:47:55.805Z,100417.55
2019-01-19T09:50:25.345Z,100415.31
2019-01-19T09:52:54.804Z,100413.83
2019-01-19T09:55:24.336Z,100409.11
2019-01-19T09:57:53.789Z,100406.81
2019-01-19T10:00:27.974Z,100409.17
2019-01-19T10:02:57.409Z,100406.65
2019-01-19T10:05:27.910Z,100409.25
2019-01-19T10:07:57.386Z,100406.89
2019-01-19T10:10:26.823Z,100400.23
2019-01-19T10:12:56.304Z,100404.84
2019-01-19T10:15:26.211Z,100391.28
2019-01-19T10:17:55.693Z,100396.95
2019-01-19T10:20:29.730Z,100392.72
2019-01-19T10:22:59.230Z,100392.53
2019-01-19T10:25:28.704Z,100394.65
2019-01-19T10:27:58.542Z,100398.28
2019-01-19T10:30:29.414Z,100392.66
2019-01-19T10:32:59.183Z,100392.42
2019-01-19T10:35:28.711Z,100387.23
2019-01-19T10:37:58.221Z,100395.01
2019-01-19T10:40:27.690Z,100381.55
2019-01-19T10:42:57.143Z,100382.20
2019-01-19T10:45:28.114Z,100376.23
2019-01-19T10:47:57.675Z,100372.85
2019-01-19T10:50:27.994Z,100375.97
2019-01-19T10:52:57.438Z,100369.55
2019-01-19T10:55:26.901Z,100370.82
2019-01-19T10:57:56.352Z,100365.45
2019-01-19T11:00:28.617Z,100367.78
2019-01-19T11:02:58.808Z,100366.59
2019-01-19T11:05:28.808Z,100356.75
2019-01-19T11:08:03.625Z,100360.34
2019-01-19T11:10:32.518Z,100357.80
2019-01-19T11:13:01.976Z,100358.78
2019-01-19T11:15:31.437Z,100357.83
2019-01-19T11:18:00.888Z,100348.22
2019-01-19T11:20:32.494Z,100355.68
2019-01-19T11:23:02.121Z,100349.03
2019-01-19T11:25:31.561Z,100342.28
2019-01-19T11:28:01.009Z,100343.85
2019-01-19T11:30:32.536Z,100337.42
2019-01-19T11:33:03.658Z,100332.09
2019-01-19T11:35:33.136Z,100327.59
2019-01-19T11:38:02.594Z,100324.86
2019-01-19T11:40:38.463Z,100318.54
2019-01-19T11:43:08.631Z,100323.11
2019-01-19T11:45:38.088Z,100314.08
2019-01-19T11:48:07.625Z,100312.69
2019-01-19T11:50:37.087Z,100308.20
2019-01-19T11:53:06.540Z,100307.95
2019-01-19T11:55:36.179Z,100304.05
2019-01-19T11:58:08.814Z,100302.63
2019-01-19T12:00:40.377Z,100294.98
2019-01-19T12:03:10.187Z,100302.30
2019-01-19T12:05:39.919Z,100292.42
2019-01-19T12:08:10.198Z,100289.82
2019-01-19T12:10:39.724Z,100291.46
2019-01-19T12:13:09.205Z,100290.66
2019-01-19T12:15:39.060Z,100286.48
2019-01-19T12:18:09.009Z,100289.64
2019-01-19T12:20:43.029Z,100284.43
2019-01-19T12:23:12.515Z,100275.00
2019-01-19T12:25:41.996Z,100275.95
2019-01-19T12:28:11.760Z,100277.03
2019-01-19T12:30:41.761Z,100280.78
2019-01-19T12:33:11.254Z,100277.95
2019-01-19T12:35:40.760Z,100271.69
2019-01-19T12:38:10.186Z,100271.07
2019-01-19T12:40:39.752Z,100269.20
2019-01-19T12:43:14.813Z,100261.44
2019-01-19T12:45:47.300Z,100258.89
2019-01-19T12:48:16.760Z,100269.40
2019-01-19T12:50:46.219Z,100266.79
2019-01-19T12:53:15.956Z,100258.97
2019-01-19T12:55:45.453Z,100253.92
2019-01-19T12:58:14.895Z,100255.41
2019-01-19T13:00:44.401Z,100251.91
2019-01-19T13:03:13.860Z,100251.42
2019-01-19T13:05:49.103Z,100260.42
2019-01-19T13:08:34.156Z,100254.81
2019-01-19T13:11:17.340Z,100254.86
2019-01-19T13:13:48.124Z,100246.99
2019-01-19T13:16:48.022Z,100245.20
2019-01-19T13:19:23.630Z,100234.00
2019-01-19T13:22:12.733Z,100238.86
2019-01-19T13:24:45.362Z,100229.80
2019-01-19T13:27:52.431Z,100236.38
2019-01-19T13:30:52.649Z,100239.05
2019-01-19T13:33:31.289Z,100233.43
2019-01-19T13:36:05.845Z,100217.89
2019-01-19T13:38:47.503Z,100225.75
2019-01-19T13:41:29.451Z,100224.45
2019-01-19T13:44:07.948Z,100219.66
2019-01-19T13:46:43.905Z,100210.65
2019-01-19T13:49:35.970Z,100216.70
2019-01-19T13:52:11.282Z,100208.00
2019-01-19T13:54:55.839Z,100215.08
2019-01-19T13:57:31.186Z,100203.63
2019-01-19T14:00:18.651Z,100208.14
2019-01-19T14:02:49.458Z,100209.36
2019-01-19T14:05:27.666Z,100203.25
2019-01-19T14:08:28.538Z,100203.31
2019-01-19T14:11:17.532Z,100200.82
2019-01-19T14:14:10.037Z,100200.67
2019-01-19T14:17:17.472Z,100200.27
2019-01-19T14:20:17.328Z,100201.15
2019-01-19T14:22:50.154Z,100196.94
2019-01-19T14:25:31.851Z,100192.77
2019-01-19T14:28:27.146Z,100187.09
2019-01-19T14:31:17.698Z,100192.38
2019-01-19T14:34:09.693Z,100183.84
2019-01-19T14:36:48.331Z,100186.16
2019-01-19T14:39:40.327Z,100181.69
2019-01-19T14:42:12.973Z,100181.56
2019-01-19T14:44:51.554Z,100181.28
2019-01-19T14:47:24.240Z,100188.15
2019-01-19T14:50:31.908Z,100181.42
2019-01-19T14:53:22.761Z,100175.58
2019-01-19T14:56:21.108Z,100175.89
2019-01-19T14:59:05.036Z,100183.63
2019-01-19T15:01:43.135Z,100183.50
2019-01-19T15:04:30.047Z,100180.02
2019-01-19T15:07:16.842Z,100173.70
2019-01-19T15:09:55.579Z,100176.26
2019-01-19T15:12:40.107Z,100169.64
2019-01-19T15:15:33.634Z,100171.05
2019-01-19T15:18:17.531Z,100169.95
2019-01-19T15:20:53.023Z,100167.19
2019-01-19T15:23:28.481Z,100166.21
2019-01-19T15:26:07.372Z,100160.72
2019-01-19T15:28:56.662Z,100160.58
2019-01-19T15:31:35.079Z,100162.91
2019-01-19T15:34:25.701Z,100160.50
2019-01-19T15:37:17.912Z,100166.89
2019-01-19T15:39:56.405Z,100171.09
2019-01-19T15:42:34.914Z,100169.55
2019-01-19T15:45:24.159Z,100163.66
2019-01-19T15:48:19.630Z,100166.98
2019-01-19T15:51:01.121Z,100169.16
2019-01-19T15:53:48.837Z,100171.32
2019-01-19T15:56:37.993Z,100163.52
2019-01-19T15:59:45.460Z,100167.52
2019-01-19T16:02:30.458Z,100166.95
2019-01-19T16:05:15.021Z,100161.77
2019-01-19T16:07:49.155Z,100162.61
2019-01-19T16:10:24.955Z,100160.43
2019-01-19T16:13:06.410Z,100157.48
2019-01-19T16:15:48.020Z,100158.51
2019-01-19T16:18:45.072Z,100155.70
2019-01-19T16:21:26.372Z,100157.13
2019-01-19T16:24:04.521Z,100162.66
2019-01-19T16:26:39.718Z,100158.02
2019-01-19T16:29:23.882Z,100157.69
2019-01-19T16:32:07.975Z,100151.45
2019-01-19T16:34:54.679Z,100153.48
2019-01-19T16:37:39.192Z,100158.05
2019-01-19T16:40:20.688Z,100158.17
2019-01-19T16:43:09.920Z,100156.67
2019-01-19T16:45:54.600Z,100153.15
2019-01-19T16:48:27.248Z,100159.73
2019-01-19T16:51:05.651Z,100155.70
2019-01-19T16:54:05.666Z,100152.98
2019-01-19T16:57:04.076Z,100153.88
2019-01-19T16:59:37.077Z,100147.00
2019-01-19T17:02:18.100Z,100147.11
2019-01-19T17:05:10.319Z,100143.27
2019-01-19T17:07:55.104Z,100145.00
2019-01-19T17:10:39.814Z,100137.42
2019-01-19T17:13:30.347Z,100138.95
2019-01-19T17:16:12.453Z,100137.34
2019-01-19T17:19:03.091Z,100139.59
2019-01-19T17:21:55.719Z,100148.10
2019-01-19T17:24:51.714Z,100148.10
2019-01-19T17:27:49.131Z,100147.30
2019-01-19T17:30:27.193Z,100143.83
2019-01-19T17:33:05.441Z,100143.96
2019-01-19T17:35:46.672Z,100137.38
2019-01-19T17:38:19.323Z,100137.19
2019-01-19T17:41:03.510Z,100137.98
2019-01-19T17:43:41.880Z,100141.64
2019-01-19T17:46:23.509Z,100136.98
2019-01-19T17:49:02.003Z,100137.27
2019-01-19T17:51:34.641Z,100136.67
2019-01-19T17:54:39.266Z,100144.95
2019-01-19T17:57:14.923Z,100143.53
2019-01-19T17:59:50.122Z,100137.47
2019-01-19T18:02:42.061Z,100136.66
2019-01-19T18:05:39.313Z,100135.45
2019-01-19T18:08:32.311Z,100135.83
2019-01-19T18:11:40.215Z,100139.28
2019-01-19T18:14:15.764Z,100141.80
2019-01-19T18:17:11.064Z,100138.36
2019-01-19T18:19:55.581Z,100138.16
2019-01-19T18:22:43.336Z,100140.95
2019-01-19T18:25:36.400Z,100143.47
2019-01-19T18:28:27.945Z,100141.63
2019-01-19T18:31:06.841Z,100142.65
2019-01-19T18:33:42.204Z,100138.01
2019-01-19T18:36:39.642Z,100143.67
2019-01-19T18:39:18.084Z,100140.91
2019-01-19T18:42:03.060Z,100137.45
2019-01-19T18:44:55.297Z,100142.89
2019-01-19T18:47:40.258Z,100133.67
2019-01-19T18:50:38.776Z,100134.84
2019-01-19T18:53:41.726Z,100133.93
2019-01-19T18:56:39.969Z,100132.59
2019-01-19T18:59:24.903Z,100130.25
2019-01-19T19:02:03.150Z,100130.44
2019-01-19T19:04:44.401Z,100131.23
2019-01-19T19:07:26.326Z,100129.92
2019-01-19T19:10:02.204Z,100134.04
2019-01-19T19:12:36.644Z,100130.17
2019-01-19T19:15:24.900Z,100133.49
2019-01-19T19:18:18.891Z,100126.70
2019-01-19T19:21:03.259Z,100122.88
2019-01-19T19:23:58.917Z,100127.33
2019-01-19T19:26:40.334Z,100120.33
2019-01-19T19:29:37.307Z,100124.08
2019-01-19T19:32:18.918Z,100125.47
2019-01-19T19:35:12.359Z,100118.43
2019-01-19T19:37:45.303Z,100123.86
2019-01-19T19:40:20.593Z,100119.70
2019-01-19T19:42:53.233Z,100120.69
2019-01-19T19:45:34.501Z,100121.02
2019-01-19T19:48:23.424Z,100127.80
2019-01-19T19:51:12.334Z,100125.17
2019-01-19T19:53:42.504Z,100124.08
2019-01-19T19:56:11.029Z,100124.16
2019-01-19T19:58:40.923Z,100121.53
2019-01-19T20:01:10.390Z,100120.91
2019-01-19T20:03:40.164Z,100112.63
2019-01-19T20:06:09.608Z,100116.75
2019-01-19T20:08:39.495Z,100113.90
2019-01-19T20:11:09.295Z,100113.67
2019-01-19T20:13:38.766Z,100112.06
2019-01-19T20:16:08.738Z,100114.06
2019-01-19T20:18:38.292Z,100105.83
2019-01-19T20:21:08.135Z,100111.40
2019-01-19T20:23:37.604Z,100108.95
2019-01-19T20:26:07.080Z,100109.19
2019-01-19T20:28:36.816Z,100108.59
2019-01-19T20:31:06.794Z,100109.28
2019-01-19T20:33:36.266Z,100103.30
2019-01-19T20:36:05.718Z,100106.91
2019-01-19T20:38:35.183Z,100102.92
2019-01-19T20:41:05.110Z,100107.94
2019-01-19T20:43:35.028Z,100102.19
2019-01-19T20:46:04.481Z,100102.01
2019-01-19T20:48:34.283Z,100099.09
2019-01-19T20:51:03.774Z,100102.05
2019-01-19T20:53:33.622Z,100100.92
2019-01-19T20:56:03.084Z,100101.37
2019-01-19T20:58:32.880Z,100103.44
2019-01-19T21:01:02.390Z,100106.14
2019-01-19T21:03:31.930Z,100102.21
2019-01-19T21:06:01.397Z,100105.99
2019-01-19T21:08:30.924Z,100101.47
2019-01-19T21:11:00.440Z,100102.27
2019-01-19T21:13:30.227Z,100098.64
2019-01-19T21:15:59.696Z,100092.09
2019-01-19T21:18:29.257Z,100098.52
2019-01-19T21:20:58.792Z,100089.55
2019-01-19T21:23:28.510Z,100092.68
2019-01-19T21:25:58.269Z,100089.55
2019-01-19T21:28:28.384Z,100089.31
2019-01-19T21:30:59.530Z,100093.33
2019-01-19T21:33:29.163Z,100089.57
2019-01-19T21:35:58.635Z,100092.14
2019-01-19T21:38:28.124Z,100088.68
2019-01-19T21:40:59.305Z,100082.70
2019-01-19T21:43:29.459Z,100083.02
2019-01-19T21:45:58.938Z,100089.77
2019-01-19T21:48:28.418Z,100088.33
2019-01-19T21:50:57.869Z,100086.95
2019-01-19T21:53:27.472Z,100088.48
2019-01-19T21:55:56.970Z,100088.44
2019-01-19T21:58:26.453Z,100086.62
2019-01-19T22:00:56.083Z,100091.23
2019-01-19T22:03:25.592Z,100089.92
2019-01-19T22:05:55.053Z,100082.25
2019-01-19T22:08:24.515Z,100083.43
2019-01-19T22:10:54.286Z,100082.05
2019-01-19T22:13:23.823Z,100077.94
2019-01-19T22:15:53.309Z,100080.26
2019-01-19T22:18:22.766Z,100081.57
2019-01-19T22:20:52.619Z,100081.23
2019-01-19T22:23:22.434Z,100081.92
2019-01-19T22:25:51.911Z,100077.56
2019-01-19T22:28:21.362Z,100076.05
2019-01-19T22:30:50.861Z,100078.24
2019-01-19T22:33:20.576Z,100069.77
2019-01-19T22:35:50.036Z,100067.87
2019-01-19T22:38:19.483Z,100069.38
2019-01-19T22:40:53.608Z,100068.75
2019-01-19T22:43:20.117Z,100070.48
2019-01-19T22:45:49.892Z,100060.44
2019-01-19T22:48:19.745Z,100063.77
2019-01-19T22:50:49.695Z,100063.30
2019-01-19T22:53:19.214Z,100060.86
2019-01-19T22:55:48.998Z,100059.80
2019-01-19T22:58:18.451Z,100058.49
2019-01-19T23:00:58.704Z,100055.58
2019-01-19T23:03:29.812Z,100055.24
2019-01-19T23:05:59.272Z,100058.75
2019-01-19T23:08:28.730Z,100059.12
2019-01-19T23:11:01.242Z,100057.86
2019-01-19T23:13:29.666Z,100055.92
2019-01-19T23:15:59.124Z,100060.85
2019-01-19T23:18:28.644Z,100063.67
2019-01-19T23:20:58.115Z,100059.83
2019-01-19T23:23:27.612Z,100060.63
2019-01-19T23:25:59.288Z,100054.86
2019-01-19T23:28:28.755Z,100050.39
2019-01-19T23:30:58.205Z,100049.92
2019-01-19T23:33:27.673Z,100051.06
2019-01-19T23:35:57.137Z,100049.25
2019-01-19T23:38:26.710Z,100048.19
2019-01-19T23:40:56.179Z,100053.16
2019-01-19T23:43:26.088Z,100041.56
2019-01-19T23:45:55.553Z,100044.26
2019-01-19T23:48:25.015Z,100043.78
2019-01-19T23:50:54.482Z,100046.44
2019-01-19T23:53:23.930Z,100042.52
2019-01-19T23:55:53.738Z,100039.41
2019-01-19T23:58:23.531Z,100032.91
